KSUE

Details ICAO KSUE
Name DOOR CO CHERRYLAND
Region United States
Timezone America/Chicago (UTC-5.0)
Plans Departing 3
Arriving 6
Stats Elevation 724 ft / 221 m (AMSL)
Location 44.843789° -87.421270°
Runways 2
Magnetic Variation 4.644° W
Sunrise 2018-05-21 10:16:22 UTC / 2018-05-21 05:16:22 Local
Sunset 2018-05-22 01:19:04 UTC / 2018-05-21 20:19:04 Local
Advertisement - Login to hide

Runways

ID Width Length Bearing (true) Bearing (mag) Surface Threshold Offset Overrun Length
02 75 ft / 23 m 4,603 ft / 1,403 m 12.87° 17.51° Asphalt 0 ft / 0 m 0 ft / 0 m
10 75 ft / 23 m 3,191 ft / 973 m 93.08° 97.72° Asphalt 0 ft / 0 m 0 ft / 0 m
20 75 ft / 23 m 4,603 ft / 1,403 m 192.88° 197.52° Asphalt 0 ft / 0 m 0 ft / 0 m
28 75 ft / 23 m 3,191 ft / 973 m 273.08° 277.72° Asphalt 0 ft / 0 m 350 ft / 107 m

Map

Weather


0- 5 10 15 20 25 30 35+ Temperature / ° C

Clouds and Precipitation
Forecast for 2018-05-21 18:00 UTC. Updated 2 hours ago

Ground ~20,000 ft ~40,000 ft Winds

METAR

KSUE 211856Z AUTO 13006KT 10SM SCT085 BKN110 14/09 A3016 RMK AO2 SLP239 T01440089

TAF

Not found

Frequencies

Recorded 128.32 MHz AWOS 3
Approach 119.25 MHz GREEN BAY APP/DEP
Unicom 122.70 MHz CTAF/UNICOM
Warning: Do not use this data for real-world aviation or navigation. No guarantee of current accuracy is given.